sensor_id;sensor_type;location;lat;lon;timestamp;pressure;altitude;pressure_sealevel;temperature;humidity
69574;BME280;62840;52.366;5.980;2023-02-15T00:00:40;102891.03;;;1.79;72.91
69574;BME280;62840;52.366;5.980;2023-02-15T00:03:08;102884.03;;;1.78;72.88
69574;BME280;62840;52.366;5.980;2023-02-15T00:05:34;102874.41;;;1.77;72.75
69574;BME280;62840;52.366;5.980;2023-02-15T00:08:00;102875.28;;;1.76;72.71
69574;BME280;62840;52.366;5.980;2023-02-15T00:10:25;102883.19;;;1.75;72.80
69574;BME280;62840;52.366;5.980;2023-02-15T00:12:51;102879.72;;;1.73;72.67
69574;BME280;62840;52.366;5.980;2023-02-15T00:15:17;102878.88;;;1.69;72.69
69574;BME280;62840;52.366;5.980;2023-02-15T00:17:43;102879.78;;;1.66;72.78
69574;BME280;62840;52.366;5.980;2023-02-15T00:20:11;102879.78;;;1.66;72.99
69574;BME280;62840;52.366;5.980;2023-02-15T00:22:37;102882.44;;;1.65;72.70
69574;BME280;62840;52.366;5.980;2023-02-15T00:25:03;102877.19;;;1.65;72.79
69574;BME280;62840;52.366;5.980;2023-02-15T00:27:30;102884.22;;;1.63;72.99
69574;BME280;62840;52.366;5.980;2023-02-15T00:29:55;102882.50;;;1.62;72.67
69574;BME280;62840;52.366;5.980;2023-02-15T00:32:21;102879.88;;;1.60;72.85
69574;BME280;62840;52.366;5.980;2023-02-15T00:34:47;102877.25;;;1.59;72.69
69574;BME280;62840;52.366;5.980;2023-02-15T00:37:15;102872.03;;;1.56;72.63
69574;BME280;62840;52.366;5.980;2023-02-15T00:39:41;102874.72;;;1.51;72.96
69574;BME280;62840;52.366;5.980;2023-02-15T00:42:06;102879.13;;;1.50;72.89
69574;BME280;62840;52.366;5.980;2023-02-15T00:44:32;102880.88;;;1.48;72.98
69574;BME280;62840;52.366;5.980;2023-02-15T00:46:58;102879.13;;;1.47;73.02
69574;BME280;62840;52.366;5.980;2023-02-15T00:49:24;102876.53;;;1.46;72.84
69574;BME280;62840;52.366;5.980;2023-02-15T00:51:49;102879.22;;;1.41;72.56
69574;BME280;62840;52.366;5.980;2023-02-15T00:54:18;102871.34;;;1.38;72.65
69574;BME280;62840;52.366;5.980;2023-02-15T00:56:44;102872.25;;;1.37;72.72
69574;BME280;62840;52.366;5.980;2023-02-15T00:59:10;102864.38;;;1.34;72.58
69574;BME280;62840;52.366;5.980;2023-02-15T01:01:35;102851.28;;;1.31;72.88
69574;BME280;62840;52.366;5.980;2023-02-15T01:04:01;102853.97;;;1.28;72.82
69574;BME280;62840;52.366;5.980;2023-02-15T01:06:27;102852.25;;;1.25;72.81
69574;BME280;62840;52.366;5.980;2023-02-15T01:08:53;102850.47;;;1.24;72.70
69574;BME280;62840;52.366;5.980;2023-02-15T01:11:22;102841.78;;;1.21;72.80
69574;BME280;62840;52.366;5.980;2023-02-15T01:13:48;102844.41;;;1.21;72.64
69574;BME280;62840;52.366;5.980;2023-02-15T01:16:15;102843.50;;;1.22;72.83
69574;BME280;62840;52.366;5.980;2023-02-15T01:18:41;102837.34;;;1.23;72.74
69574;BME280;62840;52.366;5.980;2023-02-15T01:21:11;102836.53;;;1.19;72.67
69574;BME280;62840;52.366;5.980;2023-02-15T01:23:38;102841.78;;;1.18;72.94
69574;BME280;62840;52.366;5.980;2023-02-15T01:26:04;102834.81;;;1.17;72.78
69574;BME280;62840;52.366;5.980;2023-02-15T01:28:33;102834.81;;;1.17;72.81
69574;BME280;62840;52.366;5.980;2023-02-15T01:31:03;102830.44;;;1.16;72.89
69574;BME280;62840;52.366;5.980;2023-02-15T01:33:30;102828.72;;;1.15;72.76
69574;BME280;62840;52.366;5.980;2023-02-15T01:35:56;102829.56;;;1.14;72.93
69574;BME280;62840;52.366;5.980;2023-02-15T01:38:22;102819.97;;;1.13;72.84
69574;BME280;62840;52.366;5.980;2023-02-15T01:40:50;102823.47;;;1.12;72.76
69574;BME280;62840;52.366;5.980;2023-02-15T01:43:17;102811.22;;;1.09;73.01
69574;BME280;62840;52.366;5.980;2023-02-15T01:45:47;102823.50;;;1.08;73.03
69574;BME280;62840;52.366;5.980;2023-02-15T01:48:19;102814.78;;;1.06;72.96
69574;BME280;62840;52.366;5.980;2023-02-15T01:50:49;102811.28;;;1.04;72.95
69574;BME280;62840;52.366;5.980;2023-02-15T01:53:21;102802.56;;;1.02;72.94
69574;BME280;62840;52.366;5.980;2023-02-15T01:55:54;102796.44;;;1.00;73.03
69574;BME280;62840;52.366;5.980;2023-02-15T01:58:25;102802.56;;;1.02;73.07
69574;BME280;62840;52.366;5.980;2023-02-15T02:00:57;102799.97;;;1.01;73.09
69574;BME280;62840;52.366;5.980;2023-02-15T02:03:33;102800.81;;;1.01;73.06
69574;BME280;62840;52.366;5.980;2023-02-15T02:06:08;102795.63;;;0.98;73.22
69574;BME280;62840;52.366;5.980;2023-02-15T02:08:35;102796.47;;;0.99;73.08
69574;BME280;62840;52.366;5.980;2023-02-15T02:11:01;102795.63;;;0.98;73.11
69574;BME280;62840;52.366;5.980;2023-02-15T02:13:27;102791.22;;;0.99;73.00
69574;BME280;62840;52.366;5.980;2023-02-15T02:16:01;102797.34;;;0.99;73.17
69574;BME280;62840;52.366;5.980;2023-02-15T02:18:44;102796.47;;;0.97;73.08
69574;BME280;62840;52.366;5.980;2023-02-15T02:21:51;102793.84;;;0.97;73.29
69574;BME280;62840;52.366;5.980;2023-02-15T02:27:50;102782.53;;;0.92;73.32
69574;BME280;62840;52.366;5.980;2023-02-15T02:30:40;102787.78;;;0.92;73.15
69574;BME280;62840;52.366;5.980;2023-02-15T02:33:56;102773.78;;;0.92;73.30
69574;BME280;62840;52.366;5.980;2023-02-15T02:36:33;102765.91;;;0.90;73.15
69574;BME280;62840;52.366;5.980;2023-02-15T02:39:19;102769.41;;;0.89;73.28
69574;BME280;62840;52.366;5.980;2023-02-15T02:41:58;102766.78;;;0.89;73.28
69574;BME280;62840;52.366;5.980;2023-02-15T02:44:31;102772.03;;;0.92;73.35
69574;BME280;62840;52.366;5.980;2023-02-15T02:47:15;102768.53;;;0.92;73.34
69574;BME280;62840;52.366;5.980;2023-02-15T02:49:52;102764.16;;;0.92;73.40
69574;BME280;62840;52.366;5.980;2023-02-15T02:52:36;102761.53;;;0.94;73.20
69574;BME280;62840;52.366;5.980;2023-02-15T02:55:07;102751.00;;;0.94;73.21
69574;BME280;62840;52.366;5.980;2023-02-15T02:57:43;102746.63;;;0.94;73.18
69574;BME280;62840;52.366;5.980;2023-02-15T03:00:18;102748.38;;;0.92;73.19
69574;BME280;62840;52.366;5.980;2023-02-15T03:02:47;102753.66;;;0.92;73.28
69574;BME280;62840;52.366;5.980;2023-02-15T03:05:24;102755.38;;;0.93;73.37
69574;BME280;62840;52.366;5.980;2023-02-15T03:07:53;102748.38;;;0.92;73.35
69574;BME280;62840;52.366;5.980;2023-02-15T03:10:22;102748.38;;;0.92;73.35
69574;BME280;62840;52.366;5.980;2023-02-15T03:12:51;102740.50;;;0.94;73.27
69574;BME280;62840;52.366;5.980;2023-02-15T03:15:20;102736.97;;;0.95;73.18
69574;BME280;62840;52.366;5.980;2023-02-15T03:17:51;102732.63;;;0.92;73.19
69574;BME280;62840;52.366;5.980;2023-02-15T03:20:28;102739.59;;;0.96;73.28
69574;BME280;62840;52.366;5.980;2023-02-15T03:23:01;102727.31;;;0.95;73.26
69574;BME280;62840;52.366;5.980;2023-02-15T03:25:33;102740.44;;;0.97;73.37
69574;BME280;62840;52.366;5.980;2023-02-15T03:28:05;102727.31;;;0.98;73.42
69574;BME280;62840;52.366;5.980;2023-02-15T03:30:34;102729.03;;;0.98;73.28
69574;BME280;62840;52.366;5.980;2023-02-15T03:33:04;102725.56;;;0.97;73.37
69574;BME280;62840;52.366;5.980;2023-02-15T03:35:40;102717.69;;;0.96;73.12
69574;BME280;62840;52.366;5.980;2023-02-15T03:38:17;102715.09;;;0.94;73.19
69574;BME280;62840;52.366;5.980;2023-02-15T03:40:53;102709.84;;;0.91;73.30
69574;BME280;62840;52.366;5.980;2023-02-15T03:43:42;102703.75;;;0.89;73.08
69574;BME280;62840;52.366;5.980;2023-02-15T03:46:21;102702.94;;;0.87;73.33
69574;BME280;62840;52.366;5.980;2023-02-15T03:48:54;102709.03;;;0.87;73.20
69574;BME280;62840;52.366;5.980;2023-02-15T03:51:30;102709.00;;;0.89;73.48
69574;BME280;62840;52.366;5.980;2023-02-15T03:54:03;102700.25;;;0.88;73.56
69574;BME280;62840;52.366;5.980;2023-02-15T03:56:33;102704.59;;;0.91;73.54
69574;BME280;62840;52.366;5.980;2023-02-15T03:59:01;102698.50;;;0.91;73.35
69574;BME280;62840;52.366;5.980;2023-02-15T04:01:32;102702.88;;;0.90;73.57
69574;BME280;62840;52.366;5.980;2023-02-15T04:04:07;102703.75;;;0.89;73.38
69574;BME280;62840;52.366;5.980;2023-02-15T04:06:43;102704.59;;;0.91;73.30
69574;BME280;62840;52.366;5.980;2023-02-15T04:09:09;102701.97;;;0.91;73.48
69574;BME280;62840;52.366;5.980;2023-02-15T04:11:34;102698.50;;;0.91;73.44
69574;BME280;62840;52.366;5.980;2023-02-15T04:14:00;102701.09;;;0.92;73.38
69574;BME280;62840;52.366;5.980;2023-02-15T04:16:26;102692.31;;;0.93;73.36
69574;BME280;62840;52.366;5.980;2023-02-15T04:18:53;102700.19;;;0.93;73.49
69574;BME280;62840;52.366;5.980;2023-02-15T04:21:20;102694.09;;;0.94;73.44
69574;BME280;62840;52.366;5.980;2023-02-15T04:23:50;102694.09;;;0.93;73.47
69574;BME280;62840;52.366;5.980;2023-02-15T04:26:16;102692.38;;;0.92;73.50
69574;BME280;62840;52.366;5.980;2023-02-15T04:28:42;102699.34;;;0.91;73.35
69574;BME280;62840;52.366;5.980;2023-02-15T04:31:07;102698.50;;;0.91;73.49
69574;BME280;62840;52.366;5.980;2023-02-15T04:33:33;102692.38;;;0.90;73.33
69574;BME280;62840;52.366;5.980;2023-02-15T04:35:59;102690.63;;;0.89;73.33
69574;BME280;62840;52.366;5.980;2023-02-15T04:38:25;102680.09;;;0.89;73.35
69574;BME280;62840;52.366;5.980;2023-02-15T04:40:53;102683.66;;;0.88;73.58
69574;BME280;62840;52.366;5.980;2023-02-15T04:43:19;102678.44;;;0.85;73.45
69574;BME280;62840;52.366;5.980;2023-02-15T04:45:48;102676.66;;;0.87;73.41
69574;BME280;62840;52.366;5.980;2023-02-15T04:48:14;102675.75;;;0.88;73.47
69574;BME280;62840;52.366;5.980;2023-02-15T04:50:39;102677.53;;;0.87;73.38
69574;BME280;62840;52.366;5.980;2023-02-15T04:53:05;102677.47;;;0.89;73.43
69574;BME280;62840;52.366;5.980;2023-02-15T04:55:31;102676.66;;;0.87;73.35
69574;BME280;62840;52.366;5.980;2023-02-15T04:57:59;102674.03;;;0.85;73.42
69574;BME280;62840;52.366;5.980;2023-02-15T05:00:25;102670.56;;;0.85;73.60
69574;BME280;62840;52.366;5.980;2023-02-15T05:02:50;102670.56;;;0.83;73.45
69574;BME280;62840;52.366;5.980;2023-02-15T05:05:16;102668.84;;;0.82;73.61
69574;BME280;62840;52.366;5.980;2023-02-15T05:07:42;102667.94;;;0.82;73.57
69574;BME280;62840;52.366;5.980;2023-02-15T05:10:08;102667.09;;;0.81;73.70
69574;BME280;62840;52.366;5.980;2023-02-15T05:12:34;102666.22;;;0.81;73.44
69574;BME280;62840;52.366;5.980;2023-02-15T05:15:02;102664.47;;;0.80;73.38
69574;BME280;62840;52.366;5.980;2023-02-15T05:17:28;102654.00;;;0.77;73.34
69574;BME280;62840;52.366;5.980;2023-02-15T05:19:54;102662.78;;;0.76;73.56
69574;BME280;62840;52.366;5.980;2023-02-15T05:22:20;102661.91;;;0.75;73.46
69574;BME280;62840;52.366;5.980;2023-02-15T05:24:46;102659.31;;;0.74;73.41
69574;BME280;62840;52.366;5.980;2023-02-15T05:27:12;102655.84;;;0.72;73.29
69574;BME280;62840;52.366;5.980;2023-02-15T05:29:38;102650.59;;;0.72;73.56
69574;BME280;62840;52.366;5.980;2023-02-15T05:32:06;102657.56;;;0.71;73.52
69574;BME280;62840;52.366;5.980;2023-02-15T05:34:32;102654.09;;;0.71;73.33
69574;BME280;62840;52.366;5.980;2023-02-15T05:36:57;102655.84;;;0.69;73.65
69574;BME280;62840;52.366;5.980;2023-02-15T05:39:23;102661.09;;;0.69;73.38
69574;BME280;62840;52.366;5.980;2023-02-15T05:41:49;102648.88;;;0.67;73.55
69574;BME280;62840;52.366;5.980;2023-02-15T05:44:15;102648.88;;;0.67;73.52
69574;BME280;62840;52.366;5.980;2023-02-15T05:46:40;102647.13;;;0.66;73.43
69574;BME280;62840;52.366;5.980;2023-02-15T05:49:09;102648.03;;;0.64;73.46
69574;BME280;62840;52.366;5.980;2023-02-15T05:51:34;102641.94;;;0.63;73.41
69574;BME280;62840;52.366;5.980;2023-02-15T05:54:00;102646.31;;;0.61;73.40
69574;BME280;62840;52.366;5.980;2023-02-15T05:56:26;102641.97;;;0.60;73.44
69574;BME280;62840;52.366;5.980;2023-02-15T05:58:52;102647.22;;;0.60;73.45
69574;BME280;62840;52.366;5.980;2023-02-15T06:01:19;102651.59;;;0.60;73.41
69574;BME280;62840;52.366;5.980;2023-02-15T06:03:45;102645.47;;;0.59;73.42
69574;BME280;62840;52.366;5.980;2023-02-15T06:06:13;102647.22;;;0.60;73.34
69574;BME280;62840;52.366;5.980;2023-02-15T06:08:40;102649.81;;;0.62;73.30
69574;BME280;62840;52.366;5.980;2023-02-15T06:11:06;102648.94;;;0.61;73.35
69574;BME280;62840;52.366;5.980;2023-02-15T06:13:33;102656.81;;;0.61;73.45
69574;BME280;62840;52.366;5.980;2023-02-15T06:15:59;102654.19;;;0.60;73.16
69574;BME280;62840;52.366;5.980;2023-02-15T06:18:25;102656.88;;;0.58;73.53
69574;BME280;62840;52.366;5.980;2023-02-15T06:20:51;102657.75;;;0.57;73.26
69574;BME280;62840;52.366;5.980;2023-02-15T06:23:19;102660.38;;;0.57;73.29
69574;BME280;62840;52.366;5.980;2023-02-15T06:25:45;102662.13;;;0.55;73.46
69574;BME280;62840;52.366;5.980;2023-02-15T06:28:11;102662.13;;;0.57;73.21
69574;BME280;62840;52.366;5.980;2023-02-15T06:30:37;102659.50;;;0.55;73.27
69574;BME280;62840;52.366;5.980;2023-02-15T06:33:03;102656.06;;;0.53;73.09
69574;BME280;62840;52.366;5.980;2023-02-15T06:35:29;102651.69;;;0.51;73.14
69574;BME280;62840;52.366;5.980;2023-02-15T06:37:55;102656.06;;;0.50;73.34
69574;BME280;62840;52.366;5.980;2023-02-15T06:40:23;102643.84;;;0.49;73.08
69574;BME280;62840;52.366;5.980;2023-02-15T06:42:49;102647.34;;;0.48;73.37
69574;BME280;62840;52.366;5.980;2023-02-15T06:45:15;102649.13;;;0.46;73.35
69574;BME280;62840;52.366;5.980;2023-02-15T06:47:41;102649.13;;;0.46;73.40
69574;BME280;62840;52.366;5.980;2023-02-15T06:50:08;102645.63;;;0.47;73.41
69574;BME280;62840;52.366;5.980;2023-02-15T06:52:34;102649.13;;;0.46;73.41
69574;BME280;62840;52.366;5.980;2023-02-15T06:55:00;102636.91;;;0.45;73.11
69574;BME280;62840;52.366;5.980;2023-02-15T06:57:28;102645.63;;;0.44;73.44
69574;BME280;62840;52.366;5.980;2023-02-15T06:59:54;102647.41;;;0.45;73.46
69574;BME280;62840;52.366;5.980;2023-02-15T07:02:20;102635.13;;;0.44;73.19
69574;BME280;62840;52.366;5.980;2023-02-15T07:04:46;102636.91;;;0.45;73.35
69574;BME280;62840;52.366;5.980;2023-02-15T07:07:12;102636.91;;;0.45;73.43
69574;BME280;62840;52.366;5.980;2023-02-15T07:09:38;102635.13;;;0.44;73.46
69574;BME280;62840;52.366;5.980;2023-02-15T07:12:04;102638.63;;;0.46;73.37
69574;BME280;62840;52.366;5.980;2023-02-15T07:14:33;102632.50;;;0.47;73.63
69574;BME280;62840;52.366;5.980;2023-02-15T07:16:59;102631.59;;;0.48;73.63
69574;BME280;62840;52.366;5.980;2023-02-15T07:19:25;102633.34;;;0.49;73.35
69574;BME280;62840;52.366;5.980;2023-02-15T07:21:51;102620.19;;;0.51;73.71
69574;BME280;62840;52.366;5.980;2023-02-15T07:24:17;102623.66;;;0.53;73.76
69574;BME280;62840;52.366;5.980;2023-02-15T07:26:42;102626.28;;;0.56;73.86
69574;BME280;62840;52.366;5.980;2023-02-15T07:29:08;102620.13;;;0.57;73.83
69574;BME280;62840;52.366;5.980;2023-02-15T07:31:36;102625.38;;;0.58;73.51
69574;BME280;62840;52.366;5.980;2023-02-15T07:34:02;102619.22;;;0.59;73.61
69574;BME280;62840;52.366;5.980;2023-02-15T07:36:30;102616.56;;;0.61;73.33
69574;BME280;62840;52.366;5.980;2023-02-15T07:38:56;102610.47;;;0.60;73.67
69574;BME280;62840;52.366;5.980;2023-02-15T07:41:21;102607.78;;;0.63;73.67
69574;BME280;62840;52.366;5.980;2023-02-15T07:43:47;102602.53;;;0.65;73.55
69574;BME280;62840;52.366;5.980;2023-02-15T07:46:15;102600.78;;;0.65;73.49
69574;BME280;62840;52.366;5.980;2023-02-15T07:48:44;102603.34;;;0.69;73.62
69574;BME280;62840;52.366;5.980;2023-02-15T07:51:11;102599.84;;;0.70;73.70
69574;BME280;62840;52.366;5.980;2023-02-15T07:53:38;102598.03;;;0.75;73.85
69574;BME280;62840;52.366;5.980;2023-02-15T07:56:06;102597.09;;;0.77;73.83
69574;BME280;62840;52.366;5.980;2023-02-15T07:58:34;102599.66;;;0.83;74.15
69574;BME280;62840;52.366;5.980;2023-02-15T08:01:00;102587.38;;;0.87;73.76
69574;BME280;62840;52.366;5.980;2023-02-15T08:03:26;102596.06;;;0.89;73.93
69574;BME280;62840;52.366;5.980;2023-02-15T08:05:58;102592.50;;;0.93;73.93
69574;BME280;62840;52.366;5.980;2023-02-15T08:08:25;102587.22;;;0.96;73.81
69574;BME280;62840;52.366;5.980;2023-02-15T08:10:51;102590.66;;;1.01;74.03
69574;BME280;62840;52.366;5.980;2023-02-15T08:13:20;102582.72;;;1.04;73.72
69574;BME280;62840;52.366;5.980;2023-02-15T08:15:48;102581.78;;;1.08;73.64
69574;BME280;62840;52.366;5.980;2023-02-15T08:18:14;102576.47;;;1.12;73.85
69574;BME280;62840;52.366;5.980;2023-02-15T08:20:40;102572.91;;;1.16;73.80
69574;BME280;62840;52.366;5.980;2023-02-15T08:23:08;102572.88;;;1.19;73.88
69574;BME280;62840;52.366;5.980;2023-02-15T08:25:34;102575.44;;;1.22;73.96
69574;BME280;62840;52.366;5.980;2023-02-15T08:28:00;102578.00;;;1.25;73.93
69574;BME280;62840;52.366;5.980;2023-02-15T08:30:26;102581.50;;;1.27;73.83
69574;BME280;62840;52.366;5.980;2023-02-15T08:32:51;102576.22;;;1.30;74.00
69574;BME280;62840;52.366;5.980;2023-02-15T08:35:17;102583.13;;;1.34;73.80
69574;BME280;62840;52.366;5.980;2023-02-15T08:37:43;102579.56;;;1.38;73.91
69574;BME280;62840;52.366;5.980;2023-02-15T08:40:12;102571.59;;;1.44;73.80
69574;BME280;62840;52.366;5.980;2023-02-15T08:42:37;102575.91;;;1.48;73.55
69574;BME280;62840;52.366;5.980;2023-02-15T08:45:04;102569.69;;;1.53;73.66
69574;BME280;62840;52.366;5.980;2023-02-15T08:47:30;102562.59;;;1.56;73.88
69574;BME280;62840;52.366;5.980;2023-02-15T08:49:55;102565.22;;;1.58;73.77
69574;BME280;62840;52.366;5.980;2023-02-15T08:52:21;102561.66;;;1.62;73.66
69574;BME280;62840;52.366;5.980;2023-02-15T08:54:47;102563.34;;;1.66;73.91
69574;BME280;62840;52.366;5.980;2023-02-15T08:57:15;102561.56;;;1.68;73.95
69574;BME280;62840;52.366;5.980;2023-02-15T08:59:41;102564.06;;;1.74;73.84
69574;BME280;62840;52.366;5.980;2023-02-15T09:02:10;102557.78;;;1.81;73.63
69574;BME280;62840;52.366;5.980;2023-02-15T09:04:35;102552.41;;;1.87;73.68
69574;BME280;62840;52.366;5.980;2023-02-15T09:07:01;102548.84;;;1.91;73.78
69574;BME280;62840;52.366;5.980;2023-02-15T09:09:27;102554.00;;;1.98;73.98
69574;BME280;62840;52.366;5.980;2023-02-15T09:11:53;102556.47;;;2.05;73.96
69574;BME280;62840;52.366;5.980;2023-02-15T09:14:21;102546.69;;;2.12;73.75
69574;BME280;62840;52.366;5.980;2023-02-15T09:16:47;102548.28;;;2.19;74.03
69574;BME280;62840;52.366;5.980;2023-02-15T09:19:13;102542.03;;;2.25;73.81
69574;BME280;62840;52.366;5.980;2023-02-15T09:21:40;102541.00;;;2.33;73.86
69574;BME280;62840;52.366;5.980;2023-02-15T09:24:08;102539.03;;;2.42;74.07
69574;BME280;62840;52.366;5.980;2023-02-15T09:26:39;102524.84;;;2.49;73.83
69574;BME280;62840;52.366;5.980;2023-02-15T09:29:06;102531.72;;;2.56;73.91
69574;BME280;62840;52.366;5.980;2023-02-15T09:31:38;102530.72;;;2.62;74.04
69574;BME280;62840;52.366;5.980;2023-02-15T09:34:05;102533.19;;;2.69;74.07
69574;BME280;62840;52.366;5.980;2023-02-15T09:36:33;102532.19;;;2.73;74.22
69574;BME280;62840;52.366;5.980;2023-02-15T09:39:04;102536.47;;;2.81;74.12
69574;BME280;62840;52.366;5.980;2023-02-15T09:44:53;102537.03;;;2.93;73.93
69574;BME280;62840;52.366;5.980;2023-02-15T09:47:44;102533.31;;;3.02;73.92
69574;BME280;62840;52.366;5.980;2023-02-15T09:50:49;102534.88;;;3.09;74.16
69574;BME280;62840;52.366;5.980;2023-02-15T09:53:47;102530.22;;;3.21;74.12
69574;BME280;62840;52.366;5.980;2023-02-15T09:56:31;102525.72;;;3.26;74.08
69574;BME280;62840;52.366;5.980;2023-02-15T09:59:06;102527.22;;;3.34;74.31
69574;BME280;62840;52.366;5.980;2023-02-15T10:01:49;102527.88;;;3.44;74.42
69574;BME280;62840;52.366;5.980;2023-02-15T10:04:46;102535.56;;;3.53;74.65
69574;BME280;62840;52.366;5.980;2023-02-15T10:07:35;102525.59;;;3.65;74.65
69574;BME280;62840;52.366;5.980;2023-02-15T10:10:27;102528.81;;;3.76;74.79
69574;BME280;62840;52.366;5.980;2023-02-15T10:13:18;102523.28;;;3.85;74.59
69574;BME280;62840;52.366;5.980;2023-02-15T10:16:01;102522.16;;;3.94;74.66
69574;BME280;62840;52.366;5.980;2023-02-15T10:18:55;102518.41;;;4.03;74.31
69574;BME280;62840;52.366;5.980;2023-02-15T10:21:42;102526.06;;;4.12;74.55
69574;BME280;62840;52.366;5.980;2023-02-15T10:24:37;102525.78;;;4.21;74.59
69574;BME280;62840;52.366;5.980;2023-02-15T10:27:12;102525.63;;;4.27;74.47
69574;BME280;62840;52.366;5.980;2023-02-15T10:29:50;102526.31;;;4.34;74.50
69574;BME280;62840;52.366;5.980;2023-02-15T10:32:28;102529.63;;;4.40;74.31
69574;BME280;62840;52.366;5.980;2023-02-15T10:35:10;102527.63;;;4.49;74.43
69574;BME280;62840;52.366;5.980;2023-02-15T10:37:57;102527.41;;;4.56;74.24
69574;BME280;62840;52.366;5.980;2023-02-15T10:40:46;102528.00;;;4.64;74.39
69574;BME280;62840;52.366;5.980;2023-02-15T10:43:41;102525.97;;;4.74;74.26
69574;BME280;62840;52.366;5.980;2023-02-15T10:46:38;102527.41;;;4.84;74.10
69574;BME280;62840;52.366;5.980;2023-02-15T10:49:38;102520.03;;;4.96;74.50
69574;BME280;62840;52.366;5.980;2023-02-15T10:52:29;102518.88;;;5.04;74.32
69574;BME280;62840;52.366;5.980;2023-02-15T10:55:16;102519.41;;;5.14;74.13
69574;BME280;62840;52.366;5.980;2023-02-15T10:57:54;102528.84;;;5.23;74.06
69574;BME280;62840;52.366;5.980;2023-02-15T11:00:33;102516.22;;;5.31;74.13
69574;BME280;62840;52.366;5.980;2023-02-15T11:03:20;102515.97;;;5.39;74.31
69574;BME280;62840;52.366;5.980;2023-02-15T11:06:03;102515.59;;;5.50;74.24
69574;BME280;62840;52.366;5.980;2023-02-15T11:08:35;102509.13;;;5.58;73.99
69574;BME280;62840;52.366;5.980;2023-02-15T11:11:10;102512.25;;;5.70;73.75
69574;BME280;62840;52.366;5.980;2023-02-15T11:13:44;102512.75;;;5.81;73.83
69574;BME280;62840;52.366;5.980;2023-02-15T11:16:17;102497.34;;;5.92;73.57
69574;BME280;62840;52.366;5.980;2023-02-15T11:18:50;102495.16;;;6.03;73.43
69574;BME280;62840;52.366;5.980;2023-02-15T11:21:24;102489.38;;;6.16;73.53
69574;BME280;62840;52.366;5.980;2023-02-15T11:23:55;102491.53;;;6.29;73.44
69574;BME280;62840;52.366;5.980;2023-02-15T11:26:28;102489.38;;;6.39;73.56
69574;BME280;62840;52.366;5.980;2023-02-15T11:29:01;102479.22;;;6.50;73.59
69574;BME280;62840;52.366;5.980;2023-02-15T11:31:41;102472.56;;;6.62;73.10
69574;BME280;62840;52.366;5.980;2023-02-15T11:34:15;102480.97;;;6.74;73.30
69574;BME280;62840;52.366;5.980;2023-02-15T11:36:47;102469.00;;;6.85;73.21
69574;BME280;62840;52.366;5.980;2023-02-15T11:39:18;102472.06;;;6.97;73.05
69574;BME280;62840;52.366;5.980;2023-02-15T11:41:52;102472.38;;;7.11;72.77
69574;BME280;62840;52.366;5.980;2023-02-15T11:44:23;102473.69;;;7.21;72.88
69574;BME280;62840;52.366;5.980;2023-02-15T11:46:54;102460.97;;;7.29;72.60
69574;BME280;62840;52.366;5.980;2023-02-15T11:49:23;102464.09;;;7.39;72.60
69574;BME280;62840;52.366;5.980;2023-02-15T11:51:55;102461.00;;;7.50;72.30
69574;BME280;62840;52.366;5.980;2023-02-15T11:54:26;102462.34;;;7.60;71.92
69574;BME280;62840;52.366;5.980;2023-02-15T11:56:59;102458.28;;;7.72;72.02
69574;BME280;62840;52.366;5.980;2023-02-15T11:59:33;102450.75;;;7.82;71.79
69574;BME280;62840;52.366;5.980;2023-02-15T12:02:01;102445.97;;;7.90;71.98
69574;BME280;62840;52.366;5.980;2023-02-15T12:04:30;102439.25;;;8.00;72.05
69574;BME280;62840;52.366;5.980;2023-02-15T12:07:04;102435.25;;;8.10;71.64
69574;BME280;62840;52.366;5.980;2023-02-15T12:09:44;102429.50;;;8.20;71.58
69574;BME280;62840;52.366;5.980;2023-02-15T12:12:24;102428.22;;;8.28;71.43
69574;BME280;62840;52.366;5.980;2023-02-15T12:14:53;102421.44;;;8.40;71.30
69574;BME280;62840;52.366;5.980;2023-02-15T12:17:22;102424.63;;;8.48;71.16
69574;BME280;62840;52.366;5.980;2023-02-15T12:19:50;102420.41;;;8.62;71.03
69574;BME280;62840;52.366;5.980;2023-02-15T12:22:22;102412.78;;;8.73;70.95
69574;BME280;62840;52.366;5.980;2023-02-15T12:24:52;102422.00;;;8.83;70.63
69574;BME280;62840;52.366;5.980;2023-02-15T12:27:24;102414.50;;;8.91;70.32
69574;BME280;62840;52.366;5.980;2023-02-15T12:29:56;102406.06;;;9.00;70.19
69574;BME280;62840;52.366;5.980;2023-02-15T12:32:28;102400.25;;;9.10;70.33
69574;BME280;62840;52.366;5.980;2023-02-15T12:35:01;102397.97;;;9.19;70.26
69574;BME280;62840;52.366;5.980;2023-02-15T12:37:35;102402.91;;;9.27;70.02
69574;BME280;62840;52.366;5.980;2023-02-15T12:40:03;102391.94;;;9.33;69.97
69574;BME280;62840;52.366;5.980;2023-02-15T12:42:47;102384.44;;;9.41;70.07
69574;BME280;62840;52.366;5.980;2023-02-15T12:45:25;102378.78;;;9.48;69.70
69574;BME280;62840;52.366;5.980;2023-02-15T12:48:08;102368.56;;;9.56;69.44
69574;BME280;62840;52.366;5.980;2023-02-15T12:50:39;102365.56;;;9.62;69.32
69574;BME280;62840;52.366;5.980;2023-02-15T12:53:08;102365.25;;;9.68;69.25
69574;BME280;62840;52.366;5.980;2023-02-15T12:55:50;102361.31;;;9.75;69.23
69574;BME280;62840;52.366;5.980;2023-02-15T12:58:21;102376.00;;;9.82;69.17
69574;BME280;62840;52.366;5.980;2023-02-15T13:01:02;102376.44;;;9.91;68.78
69574;BME280;62840;52.366;5.980;2023-02-15T13:03:35;102370.78;;;9.97;68.64
69574;BME280;62840;52.366;5.980;2023-02-15T13:06:03;102374.84;;;10.04;68.08
69574;BME280;62840;52.366;5.980;2023-02-15T13:08:32;102370.78;;;10.13;68.33
69574;BME280;62840;52.366;5.980;2023-02-15T13:11:06;102364.09;;;10.21;67.80
69574;BME280;62840;52.366;5.980;2023-02-15T13:13:47;102363.56;;;10.31;67.35
69574;BME280;62840;52.366;5.980;2023-02-15T13:16:24;102363.03;;;10.40;67.42
69574;BME280;62840;52.366;5.980;2023-02-15T13:18:56;102357.34;;;10.46;67.04
69574;BME280;62840;52.366;5.980;2023-02-15T13:21:32;102343.63;;;10.52;66.36
69574;BME280;62840;52.366;5.980;2023-02-15T13:24:05;102335.28;;;10.58;66.24
69574;BME280;62840;52.366;5.980;2023-02-15T13:26:41;102331.47;;;10.62;66.12